createdAt,value
2022-09-28T00:01:25.270Z,2.03
2022-09-28T00:03:52.919Z,0.98
2022-09-28T00:06:20.711Z,2.10
2022-09-28T00:08:47.465Z,2.25
2022-09-28T00:11:15.571Z,1.25
2022-09-28T00:13:43.019Z,4.45
2022-09-28T00:16:11.968Z,2.30
2022-09-28T00:18:38.486Z,2.13
2022-09-28T00:21:06.781Z,1.30
2022-09-28T00:23:33.794Z,4.35
2022-09-28T00:26:04.631Z,2.20
2022-09-28T00:28:31.497Z,2.08
2022-09-28T00:30:58.774Z,2.53
2022-09-28T00:33:25.278Z,2.63
2022-09-28T00:35:56.167Z,3.03
2022-09-28T00:38:22.636Z,3.67
2022-09-28T00:40:49.185Z,3.72
2022-09-28T00:43:17.000Z,2.90
2022-09-28T00:45:43.641Z,2.17
2022-09-28T00:48:10.497Z,3.10
2022-09-28T00:50:38.204Z,1.92
2022-09-28T00:53:11.107Z,3.05
2022-09-28T00:55:40.539Z,2.47
2022-09-28T00:58:08.854Z,2.92
2022-09-28T01:00:35.456Z,3.67
2022-09-28T01:03:03.075Z,4.70
2022-09-28T01:05:30.409Z,3.88
2022-09-28T01:07:57.689Z,7.40
2022-09-28T01:10:24.298Z,4.40
2022-09-28T01:12:50.976Z,5.20
2022-09-28T01:15:17.515Z,2.90
2022-09-28T01:17:44.514Z,4.57
2022-09-28T01:20:24.127Z,2.95
2022-09-28T01:22:50.638Z,3.30
2022-09-28T01:25:25.983Z,2.40
2022-09-28T01:27:54.923Z,2.47
2022-09-28T01:30:21.698Z,6.03
2022-09-28T01:32:48.102Z,3.38
2022-09-28T01:35:18.518Z,4.13
2022-09-28T01:37:53.962Z,1.90
2022-09-28T01:40:21.869Z,4.72
2022-09-28T01:42:51.167Z,4.32
2022-09-28T01:45:23.860Z,2.40
2022-09-28T01:47:51.087Z,4.40
2022-09-28T01:50:21.014Z,1.92
2022-09-28T01:52:52.757Z,2.65
2022-09-28T01:55:25.131Z,3.97
2022-09-28T01:58:00.901Z,2.80
2022-09-28T02:00:27.891Z,2.15
2022-09-28T02:02:55.727Z,1.40
2022-09-28T02:05:29.612Z,2.42
2022-09-28T02:10:24.825Z,2.25
2022-09-28T02:13:11.579Z,4.38
2022-09-28T02:15:42.770Z,4.00
2022-09-28T02:18:10.235Z,6.70
2022-09-28T02:20:38.185Z,6.28
2022-09-28T02:23:04.791Z,2.58
2022-09-28T02:25:31.568Z,2.10
2022-09-28T02:27:58.071Z,4.57
2022-09-28T02:30:24.616Z,2.20
2022-09-28T02:32:53.697Z,4.07
2022-09-28T02:35:21.214Z,1.75
2022-09-28T02:37:48.418Z,1.98
2022-09-28T02:40:22.462Z,2.38
2022-09-28T02:43:01.277Z,1.70
2022-09-28T02:45:32.653Z,3.35
2022-09-28T02:48:05.415Z,1.13
2022-09-28T02:50:37.981Z,1.30
2022-09-28T02:53:04.422Z,3.70
2022-09-28T02:55:37.082Z,1.17
2022-09-28T02:58:22.465Z,2.72
2022-09-28T03:00:51.737Z,3.80
2022-09-28T03:03:20.654Z,3.35
2022-09-28T03:05:50.186Z,2.65
2022-09-28T03:08:25.736Z,2.30
2022-09-28T03:11:01.693Z,1.50
2022-09-28T03:13:28.660Z,2.58
2022-09-28T03:16:12.247Z,2.75
2022-09-28T03:18:39.210Z,5.03
2022-09-28T03:21:06.214Z,2.30
2022-09-28T03:23:32.734Z,2.25
2022-09-28T03:25:59.649Z,3.17
2022-09-28T03:28:28.047Z,3.50
2022-09-28T03:30:55.192Z,1.83
2022-09-28T03:33:22.312Z,1.63
2022-09-28T03:35:49.670Z,1.30
2022-09-28T03:38:17.234Z,3.33
2022-09-28T03:40:43.935Z,1.05
2022-09-28T03:43:10.456Z,1.33
2022-09-28T03:45:37.026Z,1.33
2022-09-28T03:48:03.741Z,3.72
2022-09-28T03:50:30.269Z,2.17
2022-09-28T03:53:01.436Z,7.18
2022-09-28T03:55:27.966Z,2.88
2022-09-28T03:57:56.070Z,2.40
2022-09-28T04:00:23.095Z,1.08
2022-09-28T04:02:49.659Z,3.80
2022-09-28T04:05:16.182Z,2.15
2022-09-28T04:07:42.786Z,3.17
2022-09-28T04:10:09.470Z,2.40
2022-09-28T04:12:35.936Z,2.92
2022-09-28T04:15:02.452Z,3.55
2022-09-28T04:17:28.928Z,2.97
2022-09-28T04:19:55.465Z,2.15
2022-09-28T04:22:23.583Z,1.52
2022-09-28T04:24:50.117Z,4.88
2022-09-28T04:27:35.252Z,2.05
2022-09-28T04:30:01.756Z,3.25
2022-09-28T04:32:28.278Z,1.40
2022-09-28T04:34:55.043Z,3.33
2022-09-28T04:37:21.509Z,6.25
2022-09-28T04:39:48.699Z,2.08
2022-09-28T04:42:15.965Z,2.80
2022-09-28T04:44:42.697Z,5.05
2022-09-28T04:47:09.188Z,1.45
2022-09-28T04:49:37.198Z,4.53
2022-09-28T04:52:04.187Z,2.00
2022-09-28T04:54:30.740Z,1.98
2022-09-28T04:56:57.466Z,4.55
2022-09-28T04:59:24.232Z,2.58
2022-09-28T05:01:50.714Z,6.32
2022-09-28T05:04:19.466Z,4.68
2022-09-28T05:06:47.791Z,4.65
2022-09-28T05:09:14.876Z,7.40
2022-09-28T05:11:42.118Z,2.40
2022-09-28T05:14:08.614Z,8.57
2022-09-28T05:16:35.910Z,3.55
2022-09-28T05:19:02.478Z,5.10
2022-09-28T05:21:30.149Z,3.15
2022-09-28T05:23:58.336Z,5.57
2022-09-28T05:26:24.971Z,1.75
2022-09-28T05:28:51.475Z,4.43
2022-09-28T05:31:18.079Z,8.25
2022-09-28T05:33:44.670Z,2.20
2022-09-28T05:36:11.249Z,1.63
2022-09-28T05:38:37.871Z,2.35
2022-09-28T05:41:06.724Z,2.95
2022-09-28T05:43:33.533Z,4.82
2022-09-28T05:46:00.667Z,3.00
2022-09-28T05:48:28.411Z,3.53
2022-09-28T05:50:54.906Z,3.78
2022-09-28T05:53:21.755Z,2.67
2022-09-28T05:55:48.373Z,3.28
2022-09-28T05:58:14.998Z,3.70
2022-09-28T06:00:41.486Z,4.10
2022-09-28T06:03:10.228Z,3.25
2022-09-28T06:05:38.895Z,5.35
2022-09-28T06:08:06.162Z,1.10
2022-09-28T06:10:33.418Z,7.63
2022-09-28T06:13:00.272Z,5.32
2022-09-28T06:15:27.969Z,1.48
2022-09-28T06:17:58.499Z,4.93
2022-09-28T06:20:26.084Z,1.90
2022-09-28T06:22:53.317Z,1.75
2022-09-28T06:25:19.958Z,4.47
2022-09-28T06:27:56.593Z,2.50
2022-09-28T06:30:24.362Z,2.28
2022-09-28T06:32:57.832Z,1.83
2022-09-28T06:35:25.520Z,2.95
2022-09-28T06:37:52.738Z,2.22
2022-09-28T06:40:20.271Z,2.15
2022-09-28T06:42:56.378Z,0.82
2022-09-28T06:45:25.500Z,1.52
2022-09-28T06:48:01.505Z,0.65
2022-09-28T06:50:32.366Z,3.75
2022-09-28T06:52:59.437Z,1.00
2022-09-28T06:55:26.709Z,0.63
2022-09-28T06:57:59.533Z,2.05
2022-09-28T07:00:27.488Z,3.08
2022-09-28T07:02:54.069Z,1.60
2022-09-28T07:05:24.190Z,1.95
2022-09-28T07:07:50.649Z,1.23
2022-09-28T07:10:17.236Z,2.00
2022-09-28T07:12:43.745Z,1.40
2022-09-28T07:15:10.278Z,3.08
2022-09-28T07:17:51.242Z,1.73
2022-09-28T07:20:21.502Z,6.38
2022-09-28T07:22:52.600Z,4.05
2022-09-28T07:25:19.101Z,5.15
2022-09-28T07:27:45.616Z,3.85
2022-09-28T07:30:12.345Z,2.75
2022-09-28T07:32:39.137Z,5.75
2022-09-28T07:35:08.184Z,4.82
2022-09-28T07:37:37.956Z,3.78
2022-09-28T07:40:23.744Z,2.65
2022-09-28T07:42:50.603Z,3.33
2022-09-28T07:45:17.526Z,3.25
2022-09-28T07:47:44.058Z,3.55
2022-09-28T07:50:10.569Z,3.60
2022-09-28T07:52:37.058Z,2.65
2022-09-28T07:55:07.310Z,2.63
2022-09-28T07:57:34.094Z,5.22
2022-09-28T08:00:02.247Z,6.28
2022-09-28T08:02:28.793Z,8.98
2022-09-28T08:04:56.466Z,3.40
2022-09-28T08:07:24.320Z,4.55
2022-09-28T08:09:51.170Z,4.18
2022-09-28T08:12:19.811Z,2.13
2022-09-28T08:14:46.494Z,12.50
2022-09-28T08:17:13.049Z,3.83
2022-09-28T08:19:58.480Z,6.10
2022-09-28T08:22:24.994Z,3.85
2022-09-28T08:24:51.552Z,8.95
2022-09-28T08:27:18.499Z,2.95
2022-09-28T08:29:45.025Z,7.47
2022-09-28T08:32:11.591Z,7.57
2022-09-28T08:34:39.074Z,3.85
2022-09-28T08:37:06.192Z,5.00
2022-09-28T08:39:34.658Z,3.50
2022-09-28T08:42:15.933Z,3.30
2022-09-28T08:44:48.301Z,5.35
2022-09-28T08:47:59.911Z,4.68
2022-09-28T08:50:28.805Z,4.65
2022-09-28T08:52:59.757Z,5.75
2022-09-28T08:55:37.855Z,6.72
2022-09-28T08:58:15.444Z,4.40
2022-09-28T09:00:49.305Z,4.72
2022-09-28T09:06:01.154Z,3.38
2022-09-28T09:08:44.709Z,3.47
2022-09-28T09:11:11.274Z,5.07
2022-09-28T09:13:40.849Z,6.07
2022-09-28T09:16:14.714Z,2.30
2022-09-28T09:21:13.606Z,5.70
2022-09-28T09:23:49.510Z,4.07
2022-09-28T09:26:22.477Z,8.57
2022-09-28T09:28:51.312Z,6.72
2022-09-28T09:31:30.352Z,6.18
2022-09-28T09:34:05.970Z,5.63
2022-09-28T09:36:50.599Z,8.20
2022-09-28T09:39:23.122Z,6.35
2022-09-28T09:42:01.997Z,9.13
2022-09-28T09:44:28.457Z,4.65
2022-09-28T09:47:08.179Z,8.40
2022-09-28T09:49:45.890Z,4.38
2022-09-28T09:52:22.111Z,5.03
2022-09-28T09:54:51.214Z,5.43
2022-09-28T09:57:20.173Z,6.47
2022-09-28T09:59:47.113Z,6.22
2022-09-28T10:02:19.952Z,4.95
2022-09-28T10:04:47.952Z,4.65
2022-09-28T10:07:18.863Z,4.07
2022-09-28T10:09:46.497Z,3.63
2022-09-28T10:12:15.983Z,6.97
2022-09-28T10:14:42.666Z,6.07
2022-09-28T10:17:12.194Z,4.07
2022-09-28T10:19:38.744Z,7.05
2022-09-28T10:22:06.150Z,4.05
2022-09-28T10:24:38.786Z,2.08
2022-09-28T10:27:07.745Z,2.58
2022-09-28T10:29:43.474Z,2.42
2022-09-28T10:32:20.977Z,4.00
2022-09-28T10:34:50.326Z,7.28
2022-09-28T10:37:18.253Z,2.75
2022-09-28T10:39:50.940Z,5.35
2022-09-28T10:42:26.612Z,3.78
2022-09-28T10:44:55.315Z,4.03
2022-09-28T10:47:23.370Z,2.30
2022-09-28T10:49:50.834Z,7.88
2022-09-28T10:52:31.179Z,4.68
2022-09-28T10:54:57.649Z,2.80
2022-09-28T10:57:29.173Z,3.20
2022-09-28T10:59:55.675Z,7.28
2022-09-28T11:02:27.100Z,4.18
2022-09-28T11:04:54.717Z,4.50
2022-09-28T11:07:25.598Z,5.53
2022-09-28T11:09:52.577Z,6.00
2022-09-28T11:12:23.962Z,3.92
2022-09-28T11:14:55.972Z,5.53
2022-09-28T11:17:32.966Z,5.75
2022-09-28T11:20:21.499Z,3.53
2022-09-28T11:22:53.690Z,4.13
2022-09-28T11:25:30.352Z,8.77
2022-09-28T11:27:56.814Z,10.38
2022-09-28T11:30:24.983Z,8.40
2022-09-28T11:32:53.314Z,4.07
2022-09-28T11:35:32.633Z,10.05
2022-09-28T11:37:59.188Z,8.35
2022-09-28T11:40:28.935Z,9.05
2022-09-28T11:43:03.822Z,14.07
2022-09-28T11:45:36.353Z,6.32
2022-09-28T11:48:04.725Z,10.75
2022-09-28T11:50:45.665Z,7.97
2022-09-28T11:53:18.091Z,10.50
2022-09-28T11:55:51.600Z,7.97
2022-09-28T11:58:22.501Z,7.60
2022-09-28T12:00:59.145Z,13.20
2022-09-28T12:03:29.633Z,10.10
2022-09-28T12:05:59.683Z,14.80
2022-09-28T12:08:30.611Z,10.27
2022-09-28T12:11:02.193Z,9.75
2022-09-28T12:13:33.359Z,9.90
2022-09-28T12:16:38.893Z,9.13
2022-09-28T12:19:07.022Z,7.78
2022-09-28T12:21:38.735Z,10.25
2022-09-28T12:24:09.875Z,14.73
2022-09-28T12:26:44.146Z,13.45
2022-09-28T12:29:14.173Z,17.35
2022-09-28T12:31:43.810Z,12.65
2022-09-28T12:34:10.377Z,8.68
2022-09-28T12:36:41.553Z,10.80
2022-09-28T12:39:40.947Z,9.68
2022-09-28T12:42:16.609Z,10.02
2022-09-28T12:45:06.159Z,11.77
2022-09-28T12:47:51.524Z,13.02
2022-09-28T12:50:37.976Z,11.27
2022-09-28T12:53:19.478Z,6.57
2022-09-28T12:55:58.554Z,10.85
2022-09-28T12:58:53.987Z,8.55
2022-09-28T13:01:40.375Z,12.98
2022-09-28T13:04:17.338Z,9.57
2022-09-28T13:06:55.254Z,12.23
2022-09-28T13:09:26.360Z,11.63
2022-09-28T13:12:25.719Z,12.57
2022-09-28T13:15:08.812Z,12.18
2022-09-28T13:17:41.318Z,19.38
2022-09-28T13:20:20.599Z,11.95
2022-09-28T13:23:16.656Z,12.77
2022-09-28T13:25:45.032Z,9.57
2022-09-28T13:28:13.238Z,14.63
2022-09-28T13:30:40.412Z,8.88
2022-09-28T13:33:07.947Z,10.73
2022-09-28T13:35:35.152Z,11.73
2022-09-28T13:38:17.506Z,12.48
2022-09-28T13:41:02.853Z,9.38
2022-09-28T13:43:48.961Z,12.82
2022-09-28T13:46:35.797Z,9.38
2022-09-28T13:49:05.385Z,13.38
2022-09-28T13:51:38.533Z,7.13
2022-09-28T13:54:22.972Z,17.55
2022-09-28T13:56:49.706Z,11.55
2022-09-28T13:59:34.535Z,11.93
2022-09-28T14:02:07.170Z,11.02
2022-09-28T14:04:52.690Z,11.98
2022-09-28T14:07:25.281Z,13.98
2022-09-28T14:10:10.532Z,12.38
2022-09-28T14:12:37.099Z,23.23
2022-09-28T14:15:13.613Z,8.13
2022-09-28T14:17:49.213Z,8.32
2022-09-28T14:20:16.698Z,11.77
2022-09-28T14:22:52.384Z,8.63
2022-09-28T14:25:26.720Z,11.82
2022-09-28T14:28:12.170Z,12.57
2022-09-28T14:30:41.692Z,12.63
2022-09-28T14:33:22.817Z,15.00
2022-09-28T14:35:58.525Z,19.13
2022-09-28T14:38:48.660Z,12.32
2022-09-28T14:41:27.230Z,14.73
2022-09-28T14:43:58.026Z,20.67
2022-09-28T14:46:27.608Z,14.45
2022-09-28T14:48:54.113Z,19.85
2022-09-28T14:51:26.866Z,16.52
2022-09-28T14:53:54.772Z,23.15
2022-09-28T14:56:21.758Z,21.50
2022-09-28T14:58:53.329Z,13.73
2022-09-28T15:01:21.079Z,24.13
2022-09-28T15:03:49.590Z,34.05
2022-09-28T15:06:16.300Z,12.85
2022-09-28T15:08:42.941Z,20.15
2022-09-28T15:11:18.188Z,25.75
2022-09-28T15:13:44.733Z,16.00
2022-09-28T15:16:14.432Z,16.27
2022-09-28T15:18:50.385Z,12.15
2022-09-28T15:21:17.155Z,33.15
2022-09-28T15:23:44.297Z,24.10
2022-09-28T15:26:21.898Z,17.58
2022-09-28T15:28:48.361Z,14.05
2022-09-28T15:31:20.941Z,21.50
2022-09-28T15:34:06.266Z,21.00
2022-09-28T15:36:36.381Z,18.85
2022-09-28T15:39:12.213Z,22.50
2022-09-28T15:41:38.784Z,14.10
2022-09-28T15:44:07.307Z,11.68
2022-09-28T15:46:35.216Z,12.45
2022-09-28T15:49:03.316Z,18.17
2022-09-28T15:51:29.934Z,17.83
2022-09-28T15:53:59.524Z,16.52
2022-09-28T15:56:26.263Z,10.65
2022-09-28T15:59:09.692Z,9.18
2022-09-28T16:01:40.248Z,8.77
2022-09-28T16:04:25.349Z,20.45
2022-09-28T16:07:10.222Z,12.30
2022-09-28T16:09:55.120Z,13.13
2022-09-28T16:12:22.071Z,16.02
2022-09-28T16:14:49.791Z,12.02
2022-09-28T16:17:29.934Z,11.93
2022-09-28T16:19:56.416Z,12.75
2022-09-28T16:22:26.709Z,14.90
2022-09-28T16:24:56.786Z,11.45
2022-09-28T16:27:23.270Z,11.00
2022-09-28T16:30:03.730Z,20.35
2022-09-28T16:32:41.602Z,12.15
2022-09-28T16:35:11.101Z,16.50
2022-09-28T16:37:42.726Z,11.23
2022-09-28T16:40:09.773Z,11.57
2022-09-28T16:42:36.855Z,9.80
2022-09-28T16:45:05.145Z,14.50
2022-09-28T16:47:35.124Z,12.13
2022-09-28T16:50:02.616Z,17.67
2022-09-28T16:52:47.853Z,17.52
2022-09-28T16:58:04.932Z,17.30
2022-09-28T17:00:32.599Z,19.50
2022-09-28T17:02:59.330Z,13.40
2022-09-28T17:05:25.842Z,15.18
2022-09-28T17:08:02.986Z,16.63
2022-09-28T17:10:45.024Z,10.98
2022-09-28T17:13:16.483Z,11.38
2022-09-28T17:15:43.167Z,19.65
2022-09-28T17:18:12.853Z,16.30
2022-09-28T17:20:40.186Z,10.18
2022-09-28T17:23:06.670Z,16.05
2022-09-28T17:25:33.635Z,13.85
2022-09-28T17:28:00.552Z,13.98
2022-09-28T17:30:27.124Z,10.48
2022-09-28T17:32:53.625Z,17.48
2022-09-28T17:35:24.685Z,11.63
2022-09-28T17:37:51.973Z,11.10
2022-09-28T17:40:28.654Z,23.35
2022-09-28T17:42:56.457Z,11.77
2022-09-28T17:45:26.979Z,13.75
2022-09-28T17:47:53.573Z,13.88
2022-09-28T17:50:24.396Z,16.80
2022-09-28T17:52:52.494Z,15.57
2022-09-28T17:55:23.183Z,16.13
2022-09-28T17:57:50.047Z,17.95
2022-09-28T18:00:17.726Z,13.77
2022-09-28T18:02:44.751Z,13.15
2022-09-28T18:05:13.573Z,13.93
2022-09-28T18:07:44.202Z,11.48
2022-09-28T18:10:18.223Z,11.70
2022-09-28T18:12:44.923Z,13.27
2022-09-28T18:15:11.573Z,10.15
2022-09-28T18:17:38.390Z,13.25
2022-09-28T18:20:06.321Z,10.40
2022-09-28T18:22:33.051Z,14.02
2022-09-28T18:24:59.610Z,13.10
2022-09-28T18:27:27.554Z,14.02
2022-09-28T18:29:54.094Z,14.63
2022-09-28T18:32:20.686Z,12.88
2022-09-28T18:34:47.181Z,11.90
2022-09-28T18:37:13.699Z,23.08
2022-09-28T18:39:40.404Z,15.77
2022-09-28T18:42:06.925Z,12.57
2022-09-28T18:44:34.023Z,10.25
2022-09-28T18:47:02.410Z,15.40
2022-09-28T18:49:30.514Z,11.52
2022-09-28T18:51:57.136Z,12.60
2022-09-28T18:54:23.759Z,13.25
2022-09-28T18:56:53.579Z,12.35
2022-09-28T18:59:20.114Z,5.80
2022-09-28T19:01:46.678Z,12.27
2022-09-28T19:04:13.673Z,9.38
2022-09-28T19:06:41.385Z,11.40
2022-09-28T19:09:08.431Z,9.15
2022-09-28T19:11:35.249Z,9.20
2022-09-28T19:14:03.228Z,9.40
2022-09-28T19:16:30.630Z,8.63
2022-09-28T19:18:57.853Z,13.63
2022-09-28T19:21:24.881Z,6.15
2022-09-28T19:23:52.150Z,10.77
2022-09-28T19:26:21.079Z,8.95
2022-09-28T19:28:47.853Z,12.02
2022-09-28T19:31:14.662Z,10.07
2022-09-28T19:33:41.915Z,10.82
2022-09-28T19:36:09.780Z,10.60
2022-09-28T19:38:37.754Z,9.35
2022-09-28T19:41:37.821Z,8.40
2022-09-28T19:44:13.289Z,13.05
2022-09-28T19:46:40.589Z,11.38
2022-09-28T19:49:08.488Z,9.25
2022-09-28T19:51:43.848Z,10.00
2022-09-28T19:54:33.108Z,12.60
2022-09-28T19:57:07.871Z,17.30
2022-09-28T19:59:35.747Z,15.80
2022-09-28T20:02:03.202Z,12.93
2022-09-28T20:04:30.086Z,9.77
2022-09-28T20:06:56.595Z,9.25
2022-09-28T20:09:23.212Z,13.57
2022-09-28T20:11:51.892Z,13.65
2022-09-28T20:14:23.395Z,14.68
2022-09-28T20:19:21.538Z,11.32
2022-09-28T20:21:51.112Z,11.57
2022-09-28T20:24:18.142Z,11.48
2022-09-28T20:26:45.855Z,12.20
2022-09-28T20:29:12.928Z,21.67
2022-09-28T20:31:39.889Z,21.30
2022-09-28T20:34:06.446Z,19.85
2022-09-28T20:36:33.071Z,13.93
2022-09-28T20:39:03.091Z,28.15
2022-09-28T20:41:35.703Z,14.27
2022-09-28T20:44:05.701Z,9.70
2022-09-28T20:46:33.322Z,32.45
2022-09-28T20:49:00.072Z,22.60
2022-09-28T20:51:26.831Z,42.55
2022-09-28T20:53:57.328Z,23.75
2022-09-28T20:56:25.228Z,17.15
2022-09-28T20:58:52.016Z,27.85
2022-09-28T21:01:19.974Z,15.88
2022-09-28T21:03:50.785Z,17.58
2022-09-28T21:06:18.856Z,18.55
2022-09-28T21:08:45.895Z,13.40
2022-09-28T21:11:13.196Z,17.55
2022-09-28T21:13:41.618Z,14.80
2022-09-28T21:16:08.748Z,12.48
2022-09-28T21:18:35.470Z,13.60
2022-09-28T21:21:02.018Z,13.45
2022-09-28T21:23:28.623Z,9.63
2022-09-28T21:26:02.474Z,11.98
2022-09-28T21:28:28.982Z,12.77
2022-09-28T21:30:55.660Z,10.85
2022-09-28T21:33:22.389Z,11.13
2022-09-28T21:35:48.908Z,17.80
2022-09-28T21:38:15.423Z,10.25
2022-09-28T21:40:42.126Z,14.68
2022-09-28T21:43:08.718Z,11.65
2022-09-28T21:45:35.354Z,18.30
2022-09-28T21:48:01.852Z,12.05
2022-09-28T21:50:28.579Z,16.13
2022-09-28T21:52:55.550Z,15.18
2022-09-28T21:55:22.746Z,9.02
2022-09-28T21:57:53.151Z,7.20
2022-09-28T22:00:23.265Z,15.20
2022-09-28T22:02:50.250Z,11.65
2022-09-28T22:05:17.122Z,11.55
2022-09-28T22:07:43.891Z,12.00
2022-09-28T22:10:12.290Z,9.95
2022-09-28T22:12:38.868Z,16.88
2022-09-28T22:15:05.606Z,13.43
2022-09-28T22:17:32.063Z,10.68
2022-09-28T22:19:58.633Z,16.52
2022-09-28T22:22:28.924Z,18.65
2022-09-28T22:24:56.214Z,14.93
2022-09-28T22:27:22.793Z,8.95
2022-09-28T22:29:51.110Z,12.60
2022-09-28T22:32:17.668Z,12.95
2022-09-28T22:34:44.147Z,9.45
2022-09-28T22:37:10.599Z,11.35
2022-09-28T22:39:37.968Z,16.38
2022-09-28T22:42:04.678Z,7.55
2022-09-28T22:44:31.242Z,16.63
2022-09-28T22:46:58.130Z,14.55
2022-09-28T22:49:24.687Z,11.13
2022-09-28T22:51:51.845Z,13.48
2022-09-28T22:54:18.410Z,10.32
2022-09-28T22:56:44.998Z,13.68
2022-09-28T22:59:11.794Z,11.60
2022-09-28T23:01:38.755Z,16.70
2022-09-28T23:04:05.797Z,14.52
2022-09-28T23:06:33.221Z,12.63
2022-09-28T23:09:00.001Z,12.98
2022-09-28T23:11:26.858Z,11.57
2022-09-28T23:13:53.972Z,18.42
2022-09-28T23:16:20.863Z,8.07
2022-09-28T23:18:49.352Z,13.30
2022-09-28T23:21:20.030Z,7.75
2022-09-28T23:23:50.676Z,10.38
2022-09-28T23:26:18.702Z,14.95
2022-09-28T23:28:45.674Z,7.63
2022-09-28T23:31:14.561Z,9.82
2022-09-28T23:33:41.078Z,9.90
2022-09-28T23:36:07.939Z,9.77
2022-09-28T23:38:34.622Z,11.60
2022-09-28T23:41:01.197Z,16.92
2022-09-28T23:43:27.880Z,16.63
2022-09-28T23:45:54.345Z,10.82
2022-09-28T23:48:20.831Z,12.88
2022-09-28T23:50:47.385Z,10.05
2022-09-28T23:53:14.563Z,12.57
2022-09-28T23:55:44.093Z,15.38
2022-09-28T23:58:11.420Z,16.00
